Historique des mesures à Cassis (13260), France
Quotidien Résumé Avril 27, 2017 Unités:  Métrique    US   Métrique/US
« Précédent (Jour)
Suivant (Jour) »
Quotidien Hebdomadaire Mensuel Annuel Période au choix
  Maximum: Minimum: Moyenne:
Température: TemperatureC °C 9.5 °C 10.3 °C
Point de rosée: DewpointC °C 0.6 °C 3.5 °C
Humidité: Humidity % 49 % 60 %
Vitesse du vent: 0 km/h 6.4 km/h 19.3 km/h
Rafales: 0 km/h - -
Vent:- - SSE
Pression: PressurehPa hPa 1005.3 hPa -
Précipitations: 0.0 mm    
Historical Graphs
 
 
Mesures pour : Avril 27, 2017
Heure Temperature Point de rosée Pression Vent Vitesse du vent Rafales Humidité Pluie (par heure) Conditions
TemperatureC °C DewpointC °C PressurehPa hPa Calm     Humidity % HourlyPrecipMM mm SoftwareType W/m2
00:10 12.4 °C 5.6 °C 1006.0 hPa WNW 20.3 km/h 22.5 km/h 63 % 0.0 mm open2300-1.11 W/m2
01:10 12.4 °C 5.3 °C 1005.6 hPa NW 20.9 km/h 26.7 km/h 62 % 0.0 mm open2300-1.11 W/m2
02:10 11.9 °C 5.3 °C 1006.3 hPa NW 13.2 km/h 13.2 km/h 64 % 0.0 mm open2300-1.11 W/m2
03:10 10.9 °C 5.0 °C 1005.3 hPa NNE 11.6 km/h 22.5 km/h 67 % 0.0 mm open2300-1.11 W/m2
04:10 10.3 °C 4.9 °C 1005.6 hPa North 8.9 km/h 9.8 km/h 69 % 0.0 mm open2300-1.11 W/m2
05:11 10.3 °C 4.9 °C 1005.3 hPa NNE 6.4 km/h 8.9 km/h 69 % 0.0 mm open2300-1.11 W/m2
06:10 9.6 °C 4.4 °C 1005.3 hPa NNW 17.9 km/h 24.8 km/h 70 % 0.0 mm open2300-1.11 W/m2
07:10 9.5 °C 4.5 °C 1006.3 hPa WNW 24.3 km/h 24.3 km/h 71 % 0.0 mm open2300-1.11 W/m2
08:10 9.8 °C 4.2 °C 1006.0 hPa WNW 15.6 km/h 15.6 km/h 68 % 0.0 mm open2300-1.11 W/m2
09:10 10.1 °C 4.2 °C 1006.7 hPa West 8 km/h 8 km/h 67 % 0.0 mm open2300-1.11 W/m2
10:10 10.3 °C 5.1 °C 1006.0 hPa WNW 25.4 km/h 25.4 km/h 70 % 0.0 mm open2300-1.11 W/m2
11:11 10.8 °C 4.2 °C 1007.3 hPa NNE 15 km/h 15 km/h 64 % 0.0 mm open2300-1.11 W/m2
12:10 10.6 °C 4.1 °C 1007.7 hPa NNE 30.7 km/h 39.9 km/h 64 % 0.0 mm open2300-1.11 W/m2
13:10 10.6 °C 4.1 °C 1007.0 hPa WNW 19.2 km/h 20.9 km/h 64 % 0.0 mm open2300-1.11 W/m2
14:11 10.9 °C 4.1 °C 1007.0 hPa NE 9.3 km/h 17.9 km/h 63 % 0.0 mm open2300-1.11 W/m2
15:11 10.6 °C 3.6 °C 1006.7 hPa NNE 10.9 km/h 10.9 km/h 62 % 0.0 mm open2300-1.11 W/m2
16:11 10.7 °C 3.4 °C 1006.7 hPa North 22 km/h 22.5 km/h 61 % 0.0 mm open2300-1.11 W/m2
17:10 10.5 °C 3.3 °C 1006.3 hPa NE 29 km/h 29 km/h 61 % 0.0 mm open2300-1.11 W/m2
18:10 12.0 °C 3.2 °C 1006.3 hPa NW 36 km/h 36 km/h 55 % 0.0 mm open2300-1.11 W/m2
19:10 12.1 °C 1.7 °C 1005.6 hPa North 19.6 km/h 23 km/h 49 % 0.0 mm open2300-1.11 W/m2
20:11 11.3 °C 1.3 °C 1006.7 hPa North 22 km/h 35.2 km/h 50 % 0.0 mm open2300-1.11 W/m2
21:10 10.9 °C 0.6 °C 1006.7 hPa North 27.7 km/h 27.7 km/h 49 % 0.0 mm open2300-1.11 W/m2
22:10 10.4 °C 0.7 °C 1008.0 hPa NW 43.5 km/h 52 km/h 51 % 0.0 mm open2300-1.11 W/m2
23:11 9.8 °C 0.9 °C 1008.4 hPa North 24.8 km/h 36 km/h 54 % 0.0 mm open2300-1.11 W/m2
Observations météo à CASSIS
WU-History script by Weather Underground - 1 mb